Time;durP1;ratioP1;P1;durP2;ratioP2;P2;SDS_P1;SDS_P2;PMS_P1;PMS_P2;Temp;Humidity;BMP_temperature;BMP_pressure;BME280_temperature;BME280_humidity;BME280_pressure;Samples;Min_cycle;Max_cycle;Signal;HPM_P1;HPM_P2
2024/02/13 00:00:00;;;;;;;3.92;3.03;;;;;;;;;;5893424;28;20054;-81
2024/02/13 00:02:52;;;;;;;4.38;2.55;;;;;;;;;;5909375;28;20041;-81
2024/02/13 00:05:43;;;;;;;8.48;3.03;;;;;;;;;;5892773;28;20051;-82
2024/02/13 00:08:34;;;;;;;7.03;2.92;;;;;;;;;;5909103;28;20047;-82
2024/02/13 00:11:35;;;;;;;2.75;2.38;;;;;;;;;;5909108;28;20048;-81
2024/02/13 00:14:26;;;;;;;4.30;2.20;;;;;;;;;;5910485;28;20045;-81
2024/02/13 00:17:17;;;;;;;4.65;1.88;;;;;;;;;;5909856;28;20059;-81
2024/02/13 00:20:09;;;;;;;4.57;2.08;;;;;;;;;;5908867;28;20121;-81
2024/02/13 00:23:00;;;;;;;5.00;2.45;;;;;;;;;;5925977;28;20044;-81
2024/02/13 00:25:52;;;;;;;4.28;2.28;;;;;;;;;;5908921;28;20044;-81
2024/02/13 00:28:44;;;;;;;4.45;2.22;;;;;;;;;;5908600;28;20047;-81
2024/02/13 00:31:35;;;;;;;2.25;1.70;;;;;;;;;;5870434;28;1139128;-81
2024/02/13 00:34:25;;;;;;;4.82;2.50;;;;;;;;;;5909744;28;20040;-82
2024/02/13 00:37:16;;;;;;;7.55;2.97;;;;;;;;;;5911154;28;20494;-81
2024/02/13 00:40:09;;;;;;;3.03;1.92;;;;;;;;;;5909918;28;20414;-81
2024/02/13 00:43:01;;;;;;;2.67;2.47;;;;;;;;;;5909919;28;20044;-80
2024/02/13 00:45:52;;;;;;;1.40;1.30;;;;;;;;;;5927038;28;20414;-81
2024/02/13 00:48:43;;;;;;;2.63;2.42;;;;;;;;;;5909378;28;20048;-81
2024/02/13 00:51:34;;;;;;;2.33;1.83;;;;;;;;;;5909602;28;20052;-81
2024/02/13 00:54:25;;;;;;;1.77;1.30;;;;;;;;;;5909392;28;20063;-81
2024/02/13 00:57:16;;;;;;;1.65;1.48;;;;;;;;;;5910278;28;20045;-81
2024/02/13 01:00:10;;;;;;;4.28;1.73;;;;;;;;;;5909232;28;20521;-81
2024/02/13 01:03:02;;;;;;;1.67;1.58;;;;;;;;;;5896024;28;20121;-81
2024/02/13 01:05:53;;;;;;;3.22;2.63;;;;;;;;;;5911156;28;20491;-81
2024/02/13 01:08:44;;;;;;;3.67;2.03;;;;;;;;;;5910207;28;20063;-82
2024/02/13 01:11:35;;;;;;;4.35;1.67;;;;;;;;;;5925531;28;20781;-81
2024/02/13 01:14:26;;;;;;;3.08;2.25;;;;;;;;;;5908633;28;20044;-81
2024/02/13 01:17:17;;;;;;;3.10;1.30;;;;;;;;;;5908461;28;20075;-81
2024/02/13 01:20:11;;;;;;;1.73;1.35;;;;;;;;;;5925466;28;20574;-81
2024/02/13 01:23:02;;;;;;;1.88;1.73;;;;;;;;;;5925365;28;20044;-80
2024/02/13 01:25:53;;;;;;;2.85;1.60;;;;;;;;;;5925548;28;20048;-81
2024/02/13 01:28:45;;;;;;;1.83;1.63;;;;;;;;;;5925018;28;20048;-81
2024/02/13 01:31:37;;;;;;;2.42;1.92;;;;;;;;;;5908368;28;20055;-81
2024/02/13 01:34:30;;;;;;;4.88;2.28;;;;;;;;;;5908503;28;20103;-81
2024/02/13 01:37:21;;;;;;;6.22;1.52;;;;;;;;;;5908143;28;20244;-81
2024/02/13 01:40:13;;;;;;;12.05;2.83;;;;;;;;;;5925158;28;20044;-81
2024/02/13 01:43:03;;;;;;;3.70;2.55;;;;;;;;;;5909533;28;20059;-81
2024/02/13 01:45:56;;;;;;;3.00;2.03;;;;;;;;;;5910097;28;20055;-81
2024/02/13 01:48:48;;;;;;;2.53;1.98;;;;;;;;;;5924966;28;20418;-81
2024/02/13 01:51:40;;;;;;;2.55;2.35;;;;;;;;;;5924760;28;20040;-81
2024/02/13 01:54:31;;;;;;;1.88;1.77;;;;;;;;;;5908025;28;20052;-81
2024/02/13 01:57:25;;;;;;;2.83;1.98;;;;;;;;;;5908051;28;20482;-81
2024/02/13 02:00:17;;;;;;;2.10;1.90;;;;;;;;;;5891719;28;20072;-82
2024/02/13 02:03:13;;;;;;;1.83;1.73;;;;;;;;;;5924412;28;20048;-81
2024/02/13 02:06:04;;;;;;;0.95;0.88;;;;;;;;;;5908183;28;20073;-80
2024/02/13 02:08:56;;;;;;;4.13;2.03;;;;;;;;;;5908166;28;20048;-81
2024/02/13 02:11:48;;;;;;;2.03;1.52;;;;;;;;;;5924209;28;20048;-81
2024/02/13 02:14:39;;;;;;;2.05;1.52;;;;;;;;;;5924286;28;20571;-81
2024/02/13 02:17:30;;;;;;;1.58;1.48;;;;;;;;;;5908906;28;20044;-81
2024/02/13 02:20:22;;;;;;;1.58;1.35;;;;;;;;;;5890987;28;20476;-81
2024/02/13 02:23:13;;;;;;;4.18;2.95;;;;;;;;;;5907531;28;20056;-82
2024/02/13 02:26:06;;;;;;;2.20;1.98;;;;;;;;;;5924503;28;20113;-81
2024/02/13 02:28:58;;;;;;;4.45;2.13;;;;;;;;;;5909389;28;20070;-81
2024/02/13 02:31:49;;;;;;;4.13;3.03;;;;;;;;;;5923814;28;20063;-81
2024/02/13 02:34:40;;;;;;;4.53;0.98;;;;;;;;;;5924290;28;20052;-81
2024/02/13 02:37:34;;;;;;;0.98;0.98;;;;;;;;;;5924092;28;20063;-81
2024/02/13 02:40:26;;;;;;;2.42;1.63;;;;;;;;;;5907441;28;20052;-81
2024/02/13 02:43:17;;;;;;;1.75;1.30;;;;;;;;;;5908803;28;20502;-81
2024/02/13 02:46:08;;;;;;;1.77;1.58;;;;;;;;;;5907386;28;20044;-81
2024/02/13 02:48:58;;;;;;;2.50;1.38;;;;;;;;;;5909367;28;20056;-81
2024/02/13 02:51:49;;;;;;;1.75;1.48;;;;;;;;;;5908677;28;20051;-80
2024/02/13 02:54:41;;;;;;;2.95;2.35;;;;;;;;;;5907355;28;20502;-81
2024/02/13 02:57:34;;;;;;;3.30;2.03;;;;;;;;;;5923678;28;20045;-81
2024/02/13 03:00:25;;;;;;;2.70;1.70;;;;;;;;;;5890838;28;20052;-81
2024/02/13 03:03:20;;;;;;;3.85;1.90;;;;;;;;;;5923568;28;20045;-81
2024/02/13 03:06:13;;;;;;;3.25;1.83;;;;;;;;;;5908681;28;20151;-81
2024/02/13 03:09:04;;;;;;;6.85;2.33;;;;;;;;;;5923914;28;20388;-80
2024/02/13 03:11:55;;;;;;;4.65;2.17;;;;;;;;;;5924033;28;20048;-81
2024/02/13 03:14:46;;;;;;;5.22;1.75;;;;;;;;;;5923747;28;20048;-81
2024/02/13 03:17:38;;;;;;;1.95;1.80;;;;;;;;;;5907044;28;20410;-81
2024/02/13 03:20:29;;;;;;;1.25;0.90;;;;;;;;;;5907285;28;20482;-81
2024/02/13 03:23:20;;;;;;;8.18;2.45;;;;;;;;;;5923774;28;20513;-81
2024/02/13 03:26:11;;;;;;;4.97;1.92;;;;;;;;;;5911879;28;20419;-81
2024/02/13 03:29:02;;;;;;;8.13;1.48;;;;;;;;;;5911068;28;20062;-80
2024/02/13 03:31:54;;;;;;;3.47;1.45;;;;;;;;;;5912459;28;20048;-81
2024/02/13 03:34:45;;;;;;;3.20;1.55;;;;;;;;;;5910866;28;20139;-81
2024/02/13 03:37:38;;;;;;;1.65;1.55;;;;;;;;;;5927853;28;20055;-81
2024/02/13 03:40:29;;;;;;;1.85;1.48;;;;;;;;;;5912166;28;20542;-81
2024/02/13 03:43:21;;;;;;;4.20;2.22;;;;;;;;;;5910907;28;20048;-81
2024/02/13 03:46:12;;;;;;;2.13;1.65;;;;;;;;;;5926936;28;20047;-81
2024/02/13 03:49:04;;;;;;;8.70;2.47;;;;;;;;;;5894213;28;20120;-81
2024/02/13 03:51:54;;;;;;;4.22;2.55;;;;;;;;;;5927732;28;20517;-81
2024/02/13 03:54:45;;;;;;;3.53;2.00;;;;;;;;;;5910698;28;20044;-81
2024/02/13 03:57:36;;;;;;;5.90;3.05;;;;;;;;;;5910422;28;20513;-81
2024/02/13 04:00:27;;;;;;;1.98;1.60;;;;;;;;;;5911947;28;20418;-81
2024/02/13 04:03:17;;;;;;;2.45;2.25;;;;;;;;;;5927001;28;20073;-80
2024/02/13 04:06:08;;;;;;;5.68;2.45;;;;;;;;;;5927071;28;20459;-80
2024/02/13 04:09:06;;;;;;;3.55;2.20;;;;;;;;;;5910582;28;20063;-80
2024/02/13 04:11:57;;;;;;;8.15;2.45;;;;;;;;;;5910549;28;20107;-80
2024/02/13 04:14:49;;;;;;;6.45;3.13;;;;;;;;;;5910270;28;20052;-80
2024/02/13 04:17:40;;;;;;;4.53;2.05;;;;;;;;;;5926534;28;20045;-80
2024/02/13 04:20:31;;;;;;;5.80;3.83;;;;;;;;;;5911130;28;20132;-80
2024/02/13 04:23:21;;;;;;;4.53;2.90;;;;;;;;;;5926251;28;20049;-80
2024/02/13 04:26:12;;;;;;;10.30;3.63;;;;;;;;;;5893401;28;20410;-79
2024/02/13 04:29:20;;;;;;;10.45;4.95;;;;;;;;;;5911175;28;21172;-79
2024/02/13 04:32:12;;;;;;;4.90;3.15;;;;;;;;;;5909509;28;20048;-79
2024/02/13 04:35:05;;;;;;;8.45;3.58;;;;;;;;;;5925714;28;20044;-78
2024/02/13 04:37:56;;;;;;;5.43;3.25;;;;;;;;;;5910672;28;20178;-79
2024/02/13 04:40:47;;;;;;;4.72;2.55;;;;;;;;;;5909409;28;20048;-79
2024/02/13 04:43:39;;;;;;;8.70;3.60;;;;;;;;;;5909523;28;20128;-79
2024/02/13 04:46:30;;;;;;;5.93;2.88;;;;;;;;;;5909456;28;20387;-79
2024/02/13 04:49:20;;;;;;;6.43;3.08;;;;;;;;;;5926132;28;20052;-79
2024/02/13 04:52:12;;;;;;;4.70;3.83;;;;;;;;;;5909059;28;20075;-79
2024/02/13 04:55:03;;;;;;;5.00;3.60;;;;;;;;;;5909393;28;20044;-79
2024/02/13 04:57:55;;;;;;;4.63;2.22;;;;;;;;;;5910863;28;20123;-79
2024/02/13 05:01:05;;;;;;;8.25;2.97;;;;;;;;;;5909050;28;20044;-79
2024/02/13 05:07:20;;;;;;;2.97;2.50;;;;;;;;;;5923171;28;20490;-79
2024/02/13 05:10:12;;;;;;;5.60;4.10;;;;;;;;;;5923669;28;20181;-80
2024/02/13 05:13:03;;;;;;;3.88;2.95;;;;;;;;;;5910234;28;20129;-79
2024/02/13 05:15:54;;;;;;;15.75;4.95;;;;;;;;;;5926087;28;20387;-80
2024/02/13 05:18:47;;;;;;;8.52;5.05;;;;;;;;;;5925413;28;20418;-80
2024/02/13 05:21:39;;;;;;;6.88;5.15;;;;;;;;;;5909874;28;20545;-80
2024/02/13 05:24:30;;;;;;;4.95;3.90;;;;;;;;;;5925188;28;20068;-80
2024/02/13 05:27:21;;;;;;;12.70;4.45;;;;;;;;;;5924926;28;20040;-81
2024/02/13 05:30:12;;;;;;;4.70;3.80;;;;;;;;;;5925274;28;20418;-80
2024/02/13 05:33:04;;;;;;;11.32;4.47;;;;;;;;;;5909418;28;20055;-80
2024/02/13 05:35:55;;;;;;;8.60;5.47;;;;;;;;;;5908792;28;20040;-81
2024/02/13 05:38:47;;;;;;;10.60;5.05;;;;;;;;;;5924799;28;20391;-81
2024/02/13 05:41:40;;;;;;;7.55;4.90;;;;;;;;;;5910002;28;20090;-81
2024/02/13 05:44:31;;;;;;;7.97;5.72;;;;;;;;;;5924612;28;20051;-81
2024/02/13 05:47:23;;;;;;;8.68;4.68;;;;;;;;;;5924541;28;20040;-81
2024/02/13 05:50:17;;;;;;;4.57;3.45;;;;;;;;;;5908154;28;20502;-81
2024/02/13 05:53:07;;;;;;;8.18;4.03;;;;;;;;;;5924043;28;20044;-82
2024/02/13 05:55:59;;;;;;;5.07;3.17;;;;;;;;;;5908671;28;20064;-81
2024/02/13 05:58:51;;;;;;;6.57;4.13;;;;;;;;;;5924694;28;20422;-81
2024/02/13 06:01:42;;;;;;;6.75;5.18;;;;;;;;;;5924506;28;20059;-81
2024/02/13 06:04:34;;;;;;;12.18;5.78;;;;;;;;;;5924502;28;20046;-81
2024/02/13 06:07:26;;;;;;;4.78;3.97;;;;;;;;;;5924543;28;20075;-81
2024/02/13 06:10:17;;;;;;;4.65;3.78;;;;;;;;;;5924399;28;20053;-81
2024/02/13 06:13:08;;;;;;;8.98;3.78;;;;;;;;;;5924303;28;20052;-81
2024/02/13 06:15:59;;;;;;;2.65;2.42;;;;;;;;;;5924658;28;20049;-81
2024/02/13 06:18:50;;;;;;;4.78;3.42;;;;;;;;;;5909197;28;20090;-82
2024/02/13 06:21:40;;;;;;;3.50;2.40;;;;;;;;;;5924225;28;20162;-81
2024/02/13 06:24:31;;;;;;;2.90;2.60;;;;;;;;;;5924188;28;20384;-81
2024/02/13 06:27:22;;;;;;;6.45;4.55;;;;;;;;;;5890899;28;20449;-82
2024/02/13 06:30:14;;;;;;;4.47;3.20;;;;;;;;;;5907619;28;20046;-82
2024/02/13 06:33:04;;;;;;;3.92;2.92;;;;;;;;;;5908780;28;20044;-81
2024/02/13 06:35:56;;;;;;;1.88;1.75;;;;;;;;;;5909692;28;20124;-81
2024/02/13 06:38:47;;;;;;;3.88;3.58;;;;;;;;;;5907248;28;20041;-82
2024/02/13 06:41:40;;;;;;;2.80;2.60;;;;;;;;;;5924294;28;20044;-82
2024/02/13 06:44:31;;;;;;;4.30;2.33;;;;;;;;;;5907394;28;20052;-81
2024/02/13 06:47:25;;;;;;;4.25;3.17;;;;;;;;;;5923928;28;20040;-81
2024/02/13 06:50:16;;;;;;;3.40;2.45;;;;;;;;;;5924153;28;20052;-82
2024/02/13 06:53:07;;;;;;;4.90;2.75;;;;;;;;;;5924132;28;20040;-81
2024/02/13 06:55:58;;;;;;;7.80;3.55;;;;;;;;;;5907946;28;20044;-81
2024/02/13 06:58:49;;;;;;;2.47;2.28;;;;;;;;;;5908744;28;20062;-82
2024/02/13 07:01:40;;;;;;;3.15;2.95;;;;;;;;;;5913516;28;20045;-82
2024/02/13 07:04:31;;;;;;;3.60;2.15;;;;;;;;;;5913373;28;20041;-82
2024/02/13 07:07:24;;;;;;;6.15;2.35;;;;;;;;;;5913059;28;20102;-82
2024/02/13 07:10:31;;;;;;;1.98;1.85;;;;;;;;;;5913067;28;20048;-82
2024/02/13 07:13:22;;;;;;;4.40;3.05;;;;;;;;;;5911477;28;20082;-81
2024/02/13 07:16:13;;;;;;;1.48;1.38;;;;;;;;;;5928500;28;20048;-81
2024/02/13 07:19:04;;;;;;;3.33;2.00;;;;;;;;;;5928731;28;20600;-81
2024/02/13 07:21:54;;;;;;;2.65;2.45;;;;;;;;;;5928653;28;20049;-81
2024/02/13 07:24:45;;;;;;;1.58;1.48;;;;;;;;;;5912911;28;20044;-82
2024/02/13 07:27:37;;;;;;;2.88;2.65;;;;;;;;;;5911412;28;20506;-82
2024/02/13 07:30:28;;;;;;;2.70;2.50;;;;;;;;;;5911518;28;20048;-81
2024/02/13 07:33:18;;;;;;;10.95;4.43;;;;;;;;;;5927965;28;20411;-82
2024/02/13 07:36:10;;;;;;;4.53;3.33;;;;;;;;;;5911282;28;20068;-81
2024/02/13 07:39:01;;;;;;;6.05;2.47;;;;;;;;;;5912325;28;20415;-81
2024/02/13 07:41:52;;;;;;;3.38;3.03;;;;;;;;;;5911549;28;20055;-81
2024/02/13 07:44:43;;;;;;;3.67;3.22;;;;;;;;;;5911055;28;20446;-81
2024/02/13 07:47:35;;;;;;;3.38;2.45;;;;;;;;;;5927601;28;20406;-81
2024/02/13 07:50:26;;;;;;;3.17;2.10;;;;;;;;;;5927496;28;20225;-81
2024/02/13 07:53:17;;;;;;;6.63;2.97;;;;;;;;;;5927554;28;20061;-82
2024/02/13 07:56:10;;;;;;;5.35;3.35;;;;;;;;;;5927503;28;20049;-80
2024/02/13 07:59:01;;;;;;;1.77;1.67;;;;;;;;;;5927581;28;20044;-81
2024/02/13 08:01:52;;;;;;;10.75;3.67;;;;;;;;;;5911020;28;20051;-81
2024/02/13 08:04:43;;;;;;;3.20;2.25;;;;;;;;;;5927072;28;20106;-82
2024/02/13 08:07:34;;;;;;;3.85;3.33;;;;;;;;;;5910474;28;20047;-81
2024/02/13 08:10:25;;;;;;;3.72;3.00;;;;;;;;;;5926107;28;20394;-81
2024/02/13 08:13:16;;;;;;;7.45;2.38;;;;;;;;;;5910120;28;20045;-81
2024/02/13 08:16:11;;;;;;;3.00;2.28;;;;;;;;;;5910462;28;20044;-81
2024/02/13 08:19:02;;;;;;;2.17;1.75;;;;;;;;;;5926319;28;20048;-80
2024/02/13 08:21:53;;;;;;;4.00;2.55;;;;;;;;;;5912020;28;20045;-81
2024/02/13 08:24:44;;;;;;;2.45;2.25;;;;;;;;;;5893556;28;20517;-82
2024/02/13 08:27:37;;;;;;;1.52;1.40;;;;;;;;;;5926755;28;20115;-81
2024/02/13 08:30:30;;;;;;;5.05;3.33;;;;;;;;;;5893617;28;20410;-82
2024/02/13 08:33:22;;;;;;;2.30;1.83;;;;;;;;;;5911335;28;20467;-81
2024/02/13 08:36:13;;;;;;;2.65;2.45;;;;;;;;;;5926355;28;20429;-81
2024/02/13 08:39:05;;;;;;;2.80;2.50;;;;;;;;;;5909962;28;20036;-81
2024/02/13 08:41:58;;;;;;;2.17;1.95;;;;;;;;;;5893776;28;20040;-81
2024/02/13 08:44:51;;;;;;;6.85;2.97;;;;;;;;;;5909873;28;20036;-81
2024/02/13 08:47:42;;;;;;;2.45;2.13;;;;;;;;;;5909569;28;20041;-81
2024/02/13 08:50:34;;;;;;;3.75;1.83;;;;;;;;;;5926074;28;20079;-81
2024/02/13 08:53:25;;;;;;;2.13;1.92;;;;;;;;;;5893143;28;20044;-81
2024/02/13 08:56:16;;;;;;;1.92;1.83;;;;;;;;;;5910404;28;20160;-81
2024/02/13 08:59:08;;;;;;;3.13;2.80;;;;;;;;;;5909318;28;20055;-81
2024/02/13 09:01:59;;;;;;;4.93;2.80;;;;;;;;;;5909713;28;20044;-81
2024/02/13 09:04:50;;;;;;;6.35;3.28;;;;;;;;;;5910987;28;20059;-81
2024/02/13 09:07:41;;;;;;;7.95;2.58;;;;;;;;;;5908867;28;20055;-82
2024/02/13 09:10:33;;;;;;;4.25;3.08;;;;;;;;;;5909173;28;20512;-81
2024/02/13 09:13:24;;;;;;;2.42;2.13;;;;;;;;;;5908963;28;20505;-81
2024/02/13 09:16:16;;;;;;;6.07;2.58;;;;;;;;;;5910241;28;20048;-81
2024/02/13 09:19:07;;;;;;;3.92;1.90;;;;;;;;;;5910445;28;20518;-80
2024/02/13 09:21:58;;;;;;;1.95;1.73;;;;;;;;;;5925404;28;20406;-82
2024/02/13 09:24:50;;;;;;;2.10;1.85;;;;;;;;;;5892503;28;20040;-81
2024/02/13 09:27:44;;;;;;;2.15;1.95;;;;;;;;;;5924657;28;20359;-82
2024/02/13 09:30:35;;;;;;;3.90;3.30;;;;;;;;;;5925152;28;20059;-82
2024/02/13 09:33:26;;;;;;;2.17;2.00;;;;;;;;;;5925227;28;20048;-81
2024/02/13 09:36:20;;;;;;;2.13;1.92;;;;;;;;;;5910033;28;20060;-81
2024/02/13 09:39:12;;;;;;;1.15;1.05;;;;;;;;;;5908410;28;20052;-81
2024/02/13 09:42:03;;;;;;;3.80;2.30;;;;;;;;;;5925006;28;20048;-81
2024/02/13 09:44:54;;;;;;;3.95;1.75;;;;;;;;;;5908751;28;20075;-81
2024/02/13 09:47:45;;;;;;;2.03;1.73;;;;;;;;;;5908210;28;20118;-82
2024/02/13 09:50:38;;;;;;;3.53;2.42;;;;;;;;;;5908279;28;20490;-81
2024/02/13 09:53:29;;;;;;;1.80;1.67;;;;;;;;;;5907887;28;20050;-81
2024/02/13 09:56:21;;;;;;;2.83;1.83;;;;;;;;;;5908002;28;20052;-81
2024/02/13 09:59:12;;;;;;;3.55;2.58;;;;;;;;;;5909138;28;20052;-81
2024/02/13 10:02:05;;;;;;;2.05;1.42;;;;;;;;;;5924789;28;20050;-81
2024/02/13 10:04:56;;;;;;;4.50;2.50;;;;;;;;;;5909675;28;20055;-81
2024/02/13 10:07:46;;;;;;;1.30;1.20;;;;;;;;;;5908960;28;20036;-81
2024/02/13 10:10:38;;;;;;;1.45;1.35;;;;;;;;;;5924683;28;20071;-81
2024/02/13 10:13:39;;;;;;;3.08;1.88;;;;;;;;;;5924583;28;20521;-81
2024/02/13 10:16:38;;;;;;;1.52;0.85;;;;;;;;;;5908175;28;20040;-81
2024/02/13 10:19:31;;;;;;;3.92;3.47;;;;;;;;;;5908923;28;20419;-81
2024/02/13 10:22:24;;;;;;;4.35;1.02;;;;;;;;;;5923755;28;20372;-81
2024/02/13 10:25:22;;;;;;;1.45;1.05;;;;;;;;;;5908963;28;20049;-81
2024/02/13 10:28:17;;;;;;;3.03;1.48;;;;;;;;;;5908949;28;20510;-81
2024/02/13 10:31:08;;;;;;;0.63;0.60;;;;;;;;;;5907373;28;20051;-80
2024/02/13 10:34:03;;;;;;;3.90;1.58;;;;;;;;;;5911363;28;20041;-81
2024/02/13 10:36:54;;;;;;;0.70;0.60;;;;;;;;;;5912693;28;20395;-81
2024/02/13 10:39:47;;;;;;;1.38;1.25;;;;;;;;;;5912226;28;20091;-81
2024/02/13 10:42:39;;;;;;;7.03;0.80;;;;;;;;;;5896035;28;20070;-81
2024/02/13 10:45:32;;;;;;;0.47;0.40;;;;;;;;;;5928651;28;20410;-81
2024/02/13 10:48:57;;;;;;;0.60;0.60;;;;;;;;;;5929100;28;20048;-82
2024/02/13 10:51:50;;;;;;;1.70;0.82;;;;;;;;;;5911037;28;20051;-80
2024/02/13 10:54:47;;;;;;;0.68;0.50;;;;;;;;;;5913373;28;20042;-81
2024/02/13 10:57:38;;;;;;;2.80;0.77;;;;;;;;;;5912445;28;20566;-80
2024/02/13 11:00:30;;;;;;;0.47;0.45;;;;;;;;;;5928718;28;20045;-81
2024/02/13 11:03:23;;;;;;;0.30;0.30;;;;;;;;;;5913385;28;20053;-81
2024/02/13 11:06:15;;;;;;;0.82;0.82;;;;;;;;;;5911747;28;20510;-81
2024/02/13 11:09:12;;;;;;;0.82;0.60;;;;;;;;;;5928243;28;20052;-81
2024/02/13 11:12:05;;;;;;;0.47;0.40;;;;;;;;;;5912999;28;20137;-80
2024/02/13 11:15:13;;;;;;;3.10;1.27;;;;;;;;;;5928565;28;20136;-80
2024/02/13 11:18:12;;;;;;;0.85;0.73;;;;;;;;;;5911227;28;20048;-80
2024/02/13 11:21:08;;;;;;;0.65;0.55;;;;;;;;;;5911578;28;20098;-80
2024/02/13 11:24:01;;;;;;;0.88;0.88;;;;;;;;;;5928413;28;20040;-81
2024/02/13 11:26:52;;;;;;;0.77;0.77;;;;;;;;;;5911715;28;20055;-80
2024/02/13 11:29:59;;;;;;;3.08;0.90;;;;;;;;;;5911124;28;20044;-80
2024/02/13 11:32:58;;;;;;;0.90;0.90;;;;;;;;;;5927906;28;20053;-81
2024/02/13 11:35:56;;;;;;;3.28;0.85;;;;;;;;;;5911960;28;20049;-80
2024/02/13 11:38:54;;;;;;;2.20;1.10;;;;;;;;;;5911466;28;20040;-81
2024/02/13 11:41:56;;;;;;;1.88;1.30;;;;;;;;;;5927095;28;20044;-81
2024/02/13 11:44:51;;;;;;;1.27;1.15;;;;;;;;;;5911886;28;20123;-80
2024/02/13 11:47:42;;;;;;;1.38;1.13;;;;;;;;;;5912400;28;20041;-80
2024/02/13 11:50:35;;;;;;;7.15;1.35;;;;;;;;;;5910903;28;20094;-80
2024/02/13 11:53:28;;;;;;;1.00;0.93;;;;;;;;;;5912315;28;20145;-80
2024/02/13 11:56:20;;;;;;;1.33;0.77;;;;;;;;;;5927269;28;20071;-80
2024/02/13 11:59:11;;;;;;;1.90;1.42;;;;;;;;;;5927262;28;20052;-80
2024/02/13 12:02:03;;;;;;;2.42;0.65;;;;;;;;;;5910348;28;20053;-81
2024/02/13 12:04:55;;;;;;;1.60;1.10;;;;;;;;;;5910943;28;20044;-81
2024/02/13 12:07:46;;;;;;;1.95;1.40;;;;;;;;;;5927183;28;20047;-81
2024/02/13 12:10:57;;;;;;;0.88;0.77;;;;;;;;;;5924987;28;20525;-80
2024/02/13 12:13:49;;;;;;;1.42;1.08;;;;;;;;;;5910300;28;20036;-81
2024/02/13 12:16:39;;;;;;;1.23;0.82;;;;;;;;;;5926675;28;20068;-80
2024/02/13 12:19:30;;;;;;;1.73;0.98;;;;;;;;;;5911557;28;20386;-80
2024/02/13 12:22:23;;;;;;;2.38;1.13;;;;;;;;;;5911538;28;20490;-80
2024/02/13 12:25:18;;;;;;;1.35;0.90;;;;;;;;;;5926497;28;20045;-80
2024/02/13 12:28:13;;;;;;;6.57;2.70;;;;;;;;;;5911207;28;20152;-80
2024/02/13 12:31:05;;;;;;;2.45;1.85;;;;;;;;;;5926469;28;20056;-80
2024/02/13 12:34:07;;;;;;;1.23;0.90;;;;;;;;;;5910529;28;20568;-80
2024/02/13 12:37:00;;;;;;;3.67;2.03;;;;;;;;;;5911179;28;20383;-80
2024/02/13 12:39:50;;;;;;;1.90;1.70;;;;;;;;;;5909999;28;20044;-80
2024/02/13 12:42:41;;;;;;;1.52;1.20;;;;;;;;;;5909436;28;20045;-80
2024/02/13 12:45:41;;;;;;;2.60;1.42;;;;;;;;;;5911104;28;20490;-80
2024/02/13 12:48:42;;;;;;;4.47;1.88;;;;;;;;;;5909391;28;20116;-80
2024/02/13 12:51:33;;;;;;;4.10;1.92;;;;;;;;;;5909458;28;20040;-80
2024/02/13 12:54:24;;;;;;;1.98;1.63;;;;;;;;;;5909261;28;20051;-80
2024/02/13 12:57:19;;;;;;;1.83;1.73;;;;;;;;;;5924586;28;20052;-80
2024/02/13 13:00:16;;;;;;;2.58;2.05;;;;;;;;;;5909401;28;20048;-80
2024/02/13 13:03:07;;;;;;;4.20;2.30;;;;;;;;;;5925978;28;20051;-80
2024/02/13 13:05:58;;;;;;;9.27;4.25;;;;;;;;;;5911021;28;20041;-80
2024/02/13 13:08:49;;;;;;;4.32;2.08;;;;;;;;;;5925712;28;20045;-80
2024/02/13 13:11:48;;;;;;;2.37;1.60;;;;;;;;;;5910224;28;20121;-81
2024/02/13 13:14:39;;;;;;;4.15;2.30;;;;;;;;;;5892198;28;20291;-80
2024/02/13 13:17:31;;;;;;;1.60;1.50;;;;;;;;;;5925299;28;20098;-80
2024/02/13 13:20:23;;;;;;;6.55;2.00;;;;;;;;;;5925277;28;20430;-79
2024/02/13 13:23:15;;;;;;;5.35;2.65;;;;;;;;;;5909879;28;20082;-81
2024/02/13 13:26:08;;;;;;;4.22;2.47;;;;;;;;;;5908231;28;20105;-79
2024/02/13 13:29:03;;;;;;;2.17;1.55;;;;;;;;;;5907425;28;20041;-80
2024/02/13 13:31:55;;;;;;;3.90;1.73;;;;;;;;;;5923402;28;20037;-80
2024/02/13 13:34:48;;;;;;;3.08;2.08;;;;;;;;;;5923526;28;20085;-80
2024/02/13 13:37:43;;;;;;;2.25;2.00;;;;;;;;;;5890977;28;20037;-80
2024/02/13 13:40:37;;;;;;;3.20;1.73;;;;;;;;;;5924544;28;20048;-80
2024/02/13 13:43:29;;;;;;;1.48;1.38;;;;;;;;;;5908393;28;20040;-80
2024/02/13 13:46:20;;;;;;;1.92;1.65;;;;;;;;;;5924706;28;20045;-80
2024/02/13 13:49:14;;;;;;;4.85;2.25;;;;;;;;;;5924866;28;20052;-80
2024/02/13 13:52:05;;;;;;;1.75;1.65;;;;;;;;;;5924449;28;20067;-80
2024/02/13 13:54:56;;;;;;;3.45;2.45;;;;;;;;;;5925400;28;20561;-80
2024/02/13 13:57:47;;;;;;;3.00;2.40;;;;;;;;;;5909333;28;20045;-80
2024/02/13 14:00:38;;;;;;;3.55;1.45;;;;;;;;;;5908146;28;20052;-80
2024/02/13 14:03:29;;;;;;;4.47;2.40;;;;;;;;;;5907784;28;20109;-80
2024/02/13 14:06:20;;;;;;;10.80;5.30;;;;;;;;;;5909286;28;20155;-80
2024/02/13 14:09:11;;;;;;;4.70;3.15;;;;;;;;;;5924235;28;20044;-80
2024/02/13 14:12:05;;;;;;;5.35;3.10;;;;;;;;;;5924474;28;20049;-79
2024/02/13 14:14:56;;;;;;;2.90;2.47;;;;;;;;;;5925239;28;20045;-80
2024/02/13 14:17:47;;;;;;;5.82;3.75;;;;;;;;;;5909075;28;20525;-80
2024/02/13 14:20:39;;;;;;;5.03;3.28;;;;;;;;;;5909329;28;20064;-80
2024/02/13 14:23:30;;;;;;;7.70;2.35;;;;;;;;;;5924201;28;20406;-79
2024/02/13 14:26:23;;;;;;;2.97;2.35;;;;;;;;;;5924214;28;20071;-80
2024/02/13 14:29:15;;;;;;;2.13;1.92;;;;;;;;;;5909251;28;20053;-80
2024/02/13 14:32:06;;;;;;;2.92;2.63;;;;;;;;;;5908723;28;20127;-79
2024/02/13 14:34:57;;;;;;;2.75;2.20;;;;;;;;;;5924797;28;20046;-79
2024/02/13 14:37:49;;;;;;;5.53;3.38;;;;;;;;;;5909090;28;20382;-80
2024/02/13 14:40:39;;;;;;;2.40;1.70;;;;;;;;;;5907947;28;20056;-80
2024/02/13 14:43:31;;;;;;;3.30;2.08;;;;;;;;;;5907692;28;20040;-80
2024/02/13 14:46:22;;;;;;;2.30;2.05;;;;;;;;;;5907263;28;20070;-80
2024/02/13 14:49:12;;;;;;;2.20;1.95;;;;;;;;;;5924280;28;20052;-79
2024/02/13 14:52:05;;;;;;;3.05;2.70;;;;;;;;;;5907551;28;20041;-79
2024/02/13 14:54:56;;;;;;;2.30;1.85;;;;;;;;;;5909178;28;20048;-80
2024/02/13 14:57:48;;;;;;;2.80;2.25;;;;;;;;;;5909052;28;20047;-80
2024/02/13 15:01:01;;;;;;;4.75;2.97;;;;;;;;;;5921458;28;20460;-79
2024/02/13 15:03:52;;;;;;;1.65;1.55;;;;;;;;;;5909206;28;20037;-79
2024/02/13 15:06:47;;;;;;;5.57;3.25;;;;;;;;;;5924365;28;20050;-79
2024/02/13 15:09:39;;;;;;;3.40;3.10;;;;;;;;;;5908054;28;20125;-80
2024/02/13 15:12:29;;;;;;;3.22;2.92;;;;;;;;;;5908632;28;20174;-79
2024/02/13 15:15:25;;;;;;;5.95;4.00;;;;;;;;;;5923980;28;20048;-79
2024/02/13 15:18:15;;;;;;;2.15;1.98;;;;;;;;;;5908748;28;20538;-79
2024/02/13 15:21:07;;;;;;;2.95;2.55;;;;;;;;;;5926171;28;20051;-79
2024/02/13 15:23:59;;;;;;;3.30;2.53;;;;;;;;;;5911867;28;20048;-80
2024/02/13 15:26:50;;;;;;;5.13;2.38;;;;;;;;;;5911583;28;20040;-79
2024/02/13 15:29:42;;;;;;;3.53;2.95;;;;;;;;;;5928367;28;20133;-79
2024/02/13 15:32:33;;;;;;;2.88;2.15;;;;;;;;;;5927945;28;20044;-79
2024/02/13 15:35:39;;;;;;;4.40;3.78;;;;;;;;;;5911207;28;20045;-79
2024/02/13 15:47:59;;;;;;;1.65;1.48;;;;;;;;;;5912420;28;20457;-79
2024/02/13 15:50:50;;;;;;;3.72;1.98;;;;;;;;;;5927774;28;20037;-79
2024/02/13 15:53:41;;;;;;;4.15;1.98;;;;;;;;;;5927373;28;20053;-79
2024/02/13 15:56:34;;;;;;;4.88;3.13;;;;;;;;;;5927181;28;20056;-79
2024/02/13 15:59:26;;;;;;;4.57;1.90;;;;;;;;;;5911738;28;20542;-79
2024/02/13 16:02:17;;;;;;;1.42;1.27;;;;;;;;;;5911739;28;20063;-79
2024/02/13 16:05:15;;;;;;;4.03;2.15;;;;;;;;;;5911795;28;20048;-79
2024/02/13 16:08:07;;;;;;;10.80;3.75;;;;;;;;;;5910464;28;20051;-78
2024/02/13 16:10:58;;;;;;;3.38;2.67;;;;;;;;;;5912238;28;20536;-79
2024/02/13 16:13:49;;;;;;;5.97;2.15;;;;;;;;;;5911330;28;20518;-79
2024/02/13 16:16:40;;;;;;;4.70;3.15;;;;;;;;;;5926804;28;20040;-79
2024/02/13 16:19:31;;;;;;;6.15;2.13;;;;;;;;;;5911505;28;20044;-79
2024/02/13 16:22:24;;;;;;;4.38;2.85;;;;;;;;;;5910207;28;20056;-79
2024/02/13 16:25:16;;;;;;;5.80;4.68;;;;;;;;;;5910206;28;20436;-79
2024/02/13 16:28:07;;;;;;;3.65;3.33;;;;;;;;;;5911471;28;20490;-79
2024/02/13 16:30:57;;;;;;;1.73;1.30;;;;;;;;;;5926983;28;20056;-79
2024/02/13 16:33:50;;;;;;;2.92;2.05;;;;;;;;;;5926860;28;20041;-79
2024/02/13 16:36:41;;;;;;;3.30;2.33;;;;;;;;;;5910175;28;20063;-80
2024/02/13 16:39:35;;;;;;;1.42;1.33;;;;;;;;;;5911155;28;20426;-79
2024/02/13 16:42:27;;;;;;;1.67;1.58;;;;;;;;;;5909749;28;20116;-79
2024/02/13 16:45:23;;;;;;;3.35;2.38;;;;;;;;;;5910938;28;20681;-79
2024/02/13 16:48:16;;;;;;;4.80;3.60;;;;;;;;;;5911418;28;20515;-80
2024/02/13 16:51:07;;;;;;;3.20;2.53;;;;;;;;;;5909864;28;20545;-79
2024/02/13 16:53:58;;;;;;;5.07;2.92;;;;;;;;;;5911669;28;20063;-79
2024/02/13 16:56:49;;;;;;;12.35;7.03;;;;;;;;;;5910522;28;20047;-79
2024/02/13 16:59:40;;;;;;;6.72;3.42;;;;;;;;;;5910840;28;20049;-80
2024/02/13 17:02:31;;;;;;;4.78;3.00;;;;;;;;;;5925976;28;20044;-79
2024/02/13 17:05:22;;;;;;;5.45;2.40;;;;;;;;;;5909036;28;20060;-79
2024/02/13 17:08:13;;;;;;;9.73;5.68;;;;;;;;;;5908885;28;20063;-79
2024/02/13 17:11:04;;;;;;;4.55;2.25;;;;;;;;;;5908940;28;20049;-78
2024/02/13 17:13:55;;;;;;;2.25;2.05;;;;;;;;;;5910620;28;20448;-79
2024/02/13 17:16:47;;;;;;;6.95;5.03;;;;;;;;;;5908725;28;20075;-79
2024/02/13 17:19:38;;;;;;;8.10;4.72;;;;;;;;;;5925450;28;20044;-80
2024/02/13 17:22:29;;;;;;;7.00;2.85;;;;;;;;;;5925210;28;20041;-79
2024/02/13 17:25:20;;;;;;;4.15;2.78;;;;;;;;;;5925566;28;20044;-79